Serendipity II — ZCIP — position and weather

sailwx.info

Track history (hours):
 
Tides and Currents Weather Stations Pressure Air Temp Water Temp Dewpoint Dewpoint Depression Visibility Wind Speed Wind Dir Waves Ship Positions

Serendipity II

Last reported at 2015-Jul-19 20:25 UTC. Time now 2015-Jul-28 08:25 UTC.
Position N 41°01' W 073°26'.
Warning: this ship's position is 8 days out of date.

Length 39 m.

Type: Pleasure craft. MMSI: 319848000.

Date/timePositionNaut miles runAvg speedWind from/ knotsBaromVisibWave heightAir tempDewpointWater temp
2015-Jul-19 20:25N 41°01' W 073°26'7615.5
2015-Jul-19 15:33N 41°16' W 071°48'1212.5
2015-Jul-19 14:33N 41°17' W 071°31'11 0.3
2015-Jul-17 19:27N 41°26' W 071°22'1617.9
2015-Jul-17 18:33N 41°17' W 071°40'2121.0
2015-Jul-17 17:33N 41°13' W 072°08'1010.4
2015-Jul-17 16:33N 41°10' W 072°21'1616.0
2015-Jul-17 15:33N 41°07' W 072°41'2721.8
2015-Jul-17 14:18N 41°02' W 073°17'1417.4
2015-Jul-17 13:31N 40°59' W 073°35'  
2015-Jul-09 22:25N 41°00' W 073°37'6 6.3
2015-Jul-09 21:31N 41°00' W 073°30'6 6.7
2015-Jul-09 20:33N 40°55' W 073°36'  
Track history (hours):
 
Tides and Currents Weather Stations Pressure Air Temp Water Temp Dewpoint Dewpoint Depression Visibility Wind Speed Wind Dir Waves Ship Positions

Serendipity II

Last reported at 2015-Jul-19 20:25 UTC. Time now 2015-Jul-28 08:25 UTC.
Position N 41°01' W 073°26'.
Warning: this ship's position is 8 days out of date.

Length 39 m.

Type: Pleasure craft. MMSI: 319848000.

Date/timePositionNaut miles runAvg speedWind from/ knotsBaromVisibWave heightAir tempDewpointWater temp
2015-Jul-19 20:25N 41°01' W 073°26'7615.5
2015-Jul-19 15:33N 41°16' W 071°48'1212.5
2015-Jul-19 14:33N 41°17' W 071°31'11 0.3
2015-Jul-17 19:27N 41°26' W 071°22'1617.9
2015-Jul-17 18:33N 41°17' W 071°40'2121.0
2015-Jul-17 17:33N 41°13' W 072°08'1010.4
2015-Jul-17 16:33N 41°10' W 072°21'1616.0
2015-Jul-17 15:33N 41°07' W 072°41'2721.8
2015-Jul-17 14:18N 41°02' W 073°17'1417.4
2015-Jul-17 13:31N 40°59' W 073°35'  
2015-Jul-09 22:25N 41°00' W 073°37'6 6.3
2015-Jul-09 21:31N 41°00' W 073°30'6 6.7
2015-Jul-09 20:33N 40°55' W 073°36'  

Dump ship's entire track history